Borne, Netherlands
Current Conditions -  °F | °C
As of 3:55 PM on Friday 31 Oct 2014 (Local Time) from EHDL Reporting Station
Broken Clouds Broken Clouds  
Wind Chill: 61°   Ceiling: 21000
Heat Index: 61°   Visibility: 6mi
Dew Point: 55°   Wind: 3mph
Humidity: 82%   Direction: 160°SSE
Pressure: 30.15"   Gusts: NA
Location:  52.3°N, 6.75°E
Report Text: EHDL 311455Z AUTO 16003KT 9999 FEW094 BKN210 16/13 Q1021 BLU
Loading
Personal Weather Stations






























Interactive Weather Map
Tropical Storm Tracking
New forecast layout! Learn more

10-Day Weather Forecast

Advertisements
Track Severe Weather on mobile